sensor_id;sensor_type;location;lat;lon;timestamp;pressure;altitude;pressure_sealevel;temperature;humidity
57779;BME280;43608;49.486;9.640;2022-12-08T00:00:27;98257.66;;;1.58;89.44
57779;BME280;43608;49.486;9.640;2022-12-08T00:01:35;98257.66;;;1.58;89.26
57779;BME280;43608;49.486;9.640;2022-12-08T00:02:06;98244.41;;;1.50;89.16
57779;BME280;43608;49.486;9.640;2022-12-08T00:02:36;98264.59;;;1.57;89.04
57779;BME280;43608;49.486;9.640;2022-12-08T00:03:06;98239.06;;;1.45;88.99
57779;BME280;43608;49.486;9.640;2022-12-08T00:03:37;98263.78;;;1.60;88.78
57779;BME280;43608;49.486;9.640;2022-12-08T00:04:09;98255.94;;;1.60;88.90
57779;BME280;43608;49.486;9.640;2022-12-08T00:04:39;98261.16;;;1.60;88.83
57779;BME280;43608;49.486;9.640;2022-12-08T00:05:28;98249.69;;;1.53;88.98
57779;BME280;43608;49.486;9.640;2022-12-08T00:06:27;98257.69;;;1.59;88.92
57779;BME280;43608;49.486;9.640;2022-12-08T00:07:16;98254.94;;;1.55;89.14
57779;BME280;43608;49.486;9.640;2022-12-08T00:08:07;98253.22;;;1.54;89.00
57779;BME280;43608;49.486;9.640;2022-12-08T00:08:57;98254.09;;;1.56;89.06
57779;BME280;43608;49.486;9.640;2022-12-08T00:09:45;98251.47;;;1.54;89.31
57779;BME280;43608;49.486;9.640;2022-12-08T00:10:16;98242.78;;;1.55;89.31
57779;BME280;43608;49.486;9.640;2022-12-08T00:10:46;98252.41;;;1.56;89.01
57779;BME280;43608;49.486;9.640;2022-12-08T00:11:17;98252.47;;;1.59;88.81
57779;BME280;43608;49.486;9.640;2022-12-08T00:11:54;98250.69;;;1.58;88.88
57779;BME280;43608;49.486;9.640;2022-12-08T00:12:25;98215.31;;;1.35;89.13
57779;BME280;43608;49.486;9.640;2022-12-08T00:12:55;98251.59;;;1.59;88.85
57779;BME280;43608;49.486;9.640;2022-12-08T00:13:26;98248.03;;;1.57;89.14
57779;BME280;43608;49.486;9.640;2022-12-08T00:13:57;98245.41;;;1.55;89.05
57779;BME280;43608;49.486;9.640;2022-12-08T00:15:05;98237.44;;;1.51;88.95
57779;BME280;43608;49.486;9.640;2022-12-08T00:15:35;98243.59;;;1.53;88.92
57779;BME280;43608;49.486;9.640;2022-12-08T00:16:06;98239.19;;;1.50;89.21
57779;BME280;43608;49.486;9.640;2022-12-08T00:16:37;98247.97;;;1.54;88.83
57779;BME280;43608;49.486;9.640;2022-12-08T00:17:09;98216.22;;;1.37;89.35
57779;BME280;43608;49.486;9.640;2022-12-08T00:17:40;98238.38;;;1.53;89.40
57779;BME280;43608;49.486;9.640;2022-12-08T00:18:10;98237.38;;;1.47;89.08
57779;BME280;43608;49.486;9.640;2022-12-08T00:18:40;98232.09;;;1.44;89.32
57779;BME280;43608;49.486;9.640;2022-12-08T00:19:11;98222.31;;;1.37;89.16
57779;BME280;43608;49.486;9.640;2022-12-08T00:19:42;98240.97;;;1.51;89.29
57779;BME280;43608;49.486;9.640;2022-12-08T00:20:12;98249.69;;;1.53;89.49
57779;BME280;43608;49.486;9.640;2022-12-08T00:20:42;98218.78;;;1.35;89.12
57779;BME280;43608;49.486;9.640;2022-12-08T00:21:13;98247.09;;;1.53;89.30
57779;BME280;43608;49.486;9.640;2022-12-08T00:21:43;98240.84;;;1.48;89.48
57779;BME280;43608;49.486;9.640;2022-12-08T00:22:14;98248.72;;;1.49;89.79
57779;BME280;43608;49.486;9.640;2022-12-08T00:22:44;98245.25;;;1.49;89.37
57779;BME280;43608;49.486;9.640;2022-12-08T00:23:14;98238.25;;;1.48;89.59
57779;BME280;43608;49.486;9.640;2022-12-08T00:23:45;98239.06;;;1.45;89.51
57779;BME280;43608;49.486;9.640;2022-12-08T00:24:16;98212.66;;;1.33;89.49
57779;BME280;43608;49.486;9.640;2022-12-08T00:24:47;98246.13;;;1.49;89.33
57779;BME280;43608;49.486;9.640;2022-12-08T00:25:17;98232.84;;;1.40;89.51
57779;BME280;43608;49.486;9.640;2022-12-08T00:25:47;98251.28;;;1.46;89.65
57779;BME280;43608;49.486;9.640;2022-12-08T00:26:18;98225.88;;;1.39;89.44
57779;BME280;43608;49.486;9.640;2022-12-08T00:26:48;98247.78;;;1.46;89.79
57779;BME280;43608;49.486;9.640;2022-12-08T00:27:19;98239.94;;;1.44;89.55
57779;BME280;43608;49.486;9.640;2022-12-08T00:27:49;98219.66;;;1.34;89.71
57779;BME280;43608;49.486;9.640;2022-12-08T00:28:20;98246.88;;;1.45;89.94
57779;BME280;43608;49.486;9.640;2022-12-08T00:28:50;98239.88;;;1.43;89.99
57779;BME280;43608;49.486;9.640;2022-12-08T00:29:20;98231.97;;;1.40;89.99
57779;BME280;43608;49.486;9.640;2022-12-08T00:29:51;98237.22;;;1.41;90.08
57779;BME280;43608;49.486;9.640;2022-12-08T00:30:21;98229.38;;;1.41;89.77
57779;BME280;43608;49.486;9.640;2022-12-08T00:30:51;98224.94;;;1.37;89.76
57779;BME280;43608;49.486;9.640;2022-12-08T00:31:22;98240.75;;;1.43;89.93
57779;BME280;43608;49.486;9.640;2022-12-08T00:31:52;98224.94;;;1.37;89.89
57779;BME280;43608;49.486;9.640;2022-12-08T00:32:23;98239.94;;;1.44;90.20
57779;BME280;43608;49.486;9.640;2022-12-08T00:32:53;98225.88;;;1.39;90.05
57779;BME280;43608;49.486;9.640;2022-12-08T00:33:23;98214.28;;;1.28;89.85
57779;BME280;43608;49.486;9.640;2022-12-08T00:33:54;98239.03;;;1.44;89.81
57779;BME280;43608;49.486;9.640;2022-12-08T00:34:25;98246.00;;;1.43;89.91
57779;BME280;43608;49.486;9.640;2022-12-08T00:34:55;98239.03;;;1.44;90.17
57779;BME280;43608;49.486;9.640;2022-12-08T00:35:25;98223.13;;;1.35;89.82
57779;BME280;43608;49.486;9.640;2022-12-08T00:35:56;98233.72;;;1.39;90.17
57779;BME280;43608;49.486;9.640;2022-12-08T00:36:26;98220.53;;;1.35;90.18
57779;BME280;43608;49.486;9.640;2022-12-08T00:36:57;98243.38;;;1.43;89.96
57779;BME280;43608;49.486;9.640;2022-12-08T00:37:27;98201.03;;;1.20;89.92
57779;BME280;43608;49.486;9.640;2022-12-08T00:37:58;98229.38;;;1.41;89.93
57779;BME280;43608;49.486;9.640;2022-12-08T00:38:28;98232.94;;;1.43;89.86
57779;BME280;43608;49.486;9.640;2022-12-08T00:38:58;98198.38;;;1.19;89.91
57779;BME280;43608;49.486;9.640;2022-12-08T00:39:29;98229.41;;;1.43;89.90
57779;BME280;43608;49.486;9.640;2022-12-08T00:39:59;98234.53;;;1.38;89.84
57779;BME280;43608;49.486;9.640;2022-12-08T00:40:29;98240.75;;;1.43;89.86
57779;BME280;43608;49.486;9.640;2022-12-08T00:41:00;98233.75;;;1.41;90.08
57779;BME280;43608;49.486;9.640;2022-12-08T00:41:30;98206.41;;;1.26;89.83
57779;BME280;43608;49.486;9.640;2022-12-08T00:42:19;98236.41;;;1.44;90.17
57779;BME280;43608;49.486;9.640;2022-12-08T00:42:49;98238.13;;;1.42;89.78
57779;BME280;43608;49.486;9.640;2022-12-08T00:43:20;98239.03;;;1.44;89.67
57779;BME280;43608;49.486;9.640;2022-12-08T00:43:50;98225.78;;;1.36;89.85
57779;BME280;43608;49.486;9.640;2022-12-08T00:44:20;98239.88;;;1.43;90.15
57779;BME280;43608;49.486;9.640;2022-12-08T00:44:51;98224.09;;;1.38;90.20
57779;BME280;43608;49.486;9.640;2022-12-08T00:45:21;98228.38;;;1.36;89.67
57779;BME280;43608;49.486;9.640;2022-12-08T00:45:52;98214.28;;;1.28;89.89
57779;BME280;43608;49.486;9.640;2022-12-08T00:46:22;98239.03;;;1.44;90.09
57779;BME280;43608;49.486;9.640;2022-12-08T00:46:53;98234.69;;;1.44;90.27
57779;BME280;43608;49.486;9.640;2022-12-08T00:47:23;98223.16;;;1.36;89.68
57779;BME280;43608;49.486;9.640;2022-12-08T00:47:53;98225.88;;;1.39;90.08
57779;BME280;43608;49.486;9.640;2022-12-08T00:48:23;98238.16;;;1.43;90.17
57779;BME280;43608;49.486;9.640;2022-12-08T00:48:54;98219.69;;;1.36;90.25
57779;BME280;43608;49.486;9.640;2022-12-08T00:49:25;98234.63;;;1.43;89.90
57779;BME280;43608;49.486;9.640;2022-12-08T00:49:55;98210.84;;;1.30;90.18
57779;BME280;43608;49.486;9.640;2022-12-08T00:50:25;98217.88;;;1.33;90.07
57779;BME280;43608;49.486;9.640;2022-12-08T00:50:56;98221.53;;;1.40;89.72
57779;BME280;43608;49.486;9.640;2022-12-08T00:51:26;98220.56;;;1.36;89.93
57779;BME280;43608;49.486;9.640;2022-12-08T00:51:57;98210.84;;;1.30;90.06
57779;BME280;43608;49.486;9.640;2022-12-08T00:52:27;98230.31;;;1.43;89.90
57779;BME280;43608;49.486;9.640;2022-12-08T00:52:57;98220.53;;;1.35;90.12
57779;BME280;43608;49.486;9.640;2022-12-08T00:53:29;98196.84;;;1.27;90.12
57779;BME280;43608;49.486;9.640;2022-12-08T00:54:00;98223.19;;;1.38;90.17
57779;BME280;43608;49.486;9.640;2022-12-08T00:54:30;98188.84;;;1.21;90.04
57779;BME280;43608;49.486;9.640;2022-12-08T00:55:00;98220.69;;;1.41;90.00
57779;BME280;43608;49.486;9.640;2022-12-08T00:55:31;98171.06;;;1.04;90.03
57779;BME280;43608;49.486;9.640;2022-12-08T00:56:01;98228.56;;;1.44;89.82
57779;BME280;43608;49.486;9.640;2022-12-08T00:56:32;98231.19;;;1.44;90.07
57779;BME280;43608;49.486;9.640;2022-12-08T00:57:03;98233.78;;;1.42;89.86
57779;BME280;43608;49.486;9.640;2022-12-08T00:57:33;98228.56;;;1.44;89.93
57779;BME280;43608;49.486;9.640;2022-12-08T00:58:03;98218.88;;;1.38;90.01
57779;BME280;43608;49.486;9.640;2022-12-08T00:58:34;98216.16;;;1.35;90.28
57779;BME280;43608;49.486;9.640;2022-12-08T00:59:05;98225.00;;;1.40;89.81
57779;BME280;43608;49.486;9.640;2022-12-08T00:59:36;98223.31;;;1.42;90.10
57779;BME280;43608;49.486;9.640;2022-12-08T01:00:07;98203.03;;;1.30;89.87
57779;BME280;43608;49.486;9.640;2022-12-08T01:00:39;98190.66;;;1.23;90.10
57779;BME280;43608;49.486;9.640;2022-12-08T01:01:11;98222.38;;;1.40;90.29
57779;BME280;43608;49.486;9.640;2022-12-08T01:01:45;98227.69;;;1.42;90.26
57779;BME280;43608;49.486;9.640;2022-12-08T01:02:15;98210.91;;;1.34;89.76
57779;BME280;43608;49.486;9.640;2022-12-08T01:02:46;98222.38;;;1.40;89.88
57779;BME280;43608;49.486;9.640;2022-12-08T01:03:16;98159.69;;;1.02;90.02
57779;BME280;43608;49.486;9.640;2022-12-08T01:03:47;98223.28;;;1.41;90.07
57779;BME280;43608;49.486;9.640;2022-12-08T01:04:18;98224.97;;;1.39;90.05
57779;BME280;43608;49.486;9.640;2022-12-08T01:04:49;98217.88;;;1.33;89.84
57779;BME280;43608;49.486;9.640;2022-12-08T01:05:19;98223.16;;;1.36;90.01
57779;BME280;43608;49.486;9.640;2022-12-08T01:05:50;98216.09;;;1.32;89.85
57779;BME280;43608;49.486;9.640;2022-12-08T01:06:20;98215.28;;;1.33;90.30
57779;BME280;43608;49.486;9.640;2022-12-08T01:06:51;98230.19;;;1.39;90.15
57779;BME280;43608;49.486;9.640;2022-12-08T01:07:21;98224.00;;;1.35;90.32
57779;BME280;43608;49.486;9.640;2022-12-08T01:07:51;98223.16;;;1.36;90.24
57779;BME280;43608;49.486;9.640;2022-12-08T01:08:22;98217.91;;;1.35;90.09
57779;BME280;43608;49.486;9.640;2022-12-08T01:08:52;98209.94;;;1.30;90.49
57779;BME280;43608;49.486;9.640;2022-12-08T01:09:22;98206.47;;;1.29;90.14
57779;BME280;43608;49.486;9.640;2022-12-08T01:09:53;98199.44;;;1.27;90.20
57779;BME280;43608;49.486;9.640;2022-12-08T01:10:23;98224.09;;;1.38;90.16
57779;BME280;43608;49.486;9.640;2022-12-08T01:10:53;98221.50;;;1.38;90.59
57779;BME280;43608;49.486;9.640;2022-12-08T01:11:24;98210.81;;;1.29;90.56
57779;BME280;43608;49.486;9.640;2022-12-08T01:11:54;98221.38;;;1.35;90.47
57779;BME280;43608;49.486;9.640;2022-12-08T01:12:28;98202.94;;;1.27;90.13
57779;BME280;43608;49.486;9.640;2022-12-08T01:12:58;98217.91;;;1.35;90.29
57779;BME280;43608;49.486;9.640;2022-12-08T01:13:28;98211.75;;;1.32;90.25
57779;BME280;43608;49.486;9.640;2022-12-08T01:13:59;98229.41;;;1.43;90.29
57779;BME280;43608;49.486;9.640;2022-12-08T01:14:30;98192.34;;;1.21;90.13
57779;BME280;43608;49.486;9.640;2022-12-08T01:15:00;98218.75;;;1.34;90.21
57779;BME280;43608;49.486;9.640;2022-12-08T01:15:30;98213.53;;;1.34;90.43
57779;BME280;43608;49.486;9.640;2022-12-08T01:16:01;98229.47;;;1.44;90.07
57779;BME280;43608;49.486;9.640;2022-12-08T01:16:33;98202.09;;;1.28;90.21
57779;BME280;43608;49.486;9.640;2022-12-08T01:17:04;98219.78;;;1.40;90.26
57779;BME280;43608;49.486;9.640;2022-12-08T01:17:36;98198.59;;;1.28;90.35
57779;BME280;43608;49.486;9.640;2022-12-08T01:18:06;98222.25;;;1.34;90.46
57779;BME280;43608;49.486;9.640;2022-12-08T01:18:37;98231.13;;;1.41;89.98
57779;BME280;43608;49.486;9.640;2022-12-08T01:19:10;98234.69;;;1.44;90.15
57779;BME280;43608;49.486;9.640;2022-12-08T01:19:41;98224.94;;;1.37;90.29
57779;BME280;43608;49.486;9.640;2022-12-08T01:20:11;98226.81;;;1.43;90.37
57779;BME280;43608;49.486;9.640;2022-12-08T01:20:41;98218.84;;;1.37;90.23
57779;BME280;43608;49.486;9.640;2022-12-08T01:21:12;98230.28;;;1.42;90.46
57779;BME280;43608;49.486;9.640;2022-12-08T01:21:43;98219.72;;;1.37;90.45
57779;BME280;43608;49.486;9.640;2022-12-08T01:22:14;98222.31;;;1.37;90.36
57779;BME280;43608;49.486;9.640;2022-12-08T01:22:44;98219.75;;;1.39;90.48
57779;BME280;43608;49.486;9.640;2022-12-08T01:23:15;98211.84;;;1.36;90.21
57779;BME280;43608;49.486;9.640;2022-12-08T01:23:45;98237.34;;;1.46;90.13
57779;BME280;43608;49.486;9.640;2022-12-08T01:24:18;98233.84;;;1.45;90.41
57779;BME280;43608;49.486;9.640;2022-12-08T01:24:48;98225.81;;;1.38;90.14
57779;BME280;43608;49.486;9.640;2022-12-08T01:25:19;98230.34;;;1.45;90.15
57779;BME280;43608;49.486;9.640;2022-12-08T01:25:49;98236.41;;;1.44;90.29
57779;BME280;43608;49.486;9.640;2022-12-08T01:26:20;98236.44;;;1.45;90.18
57779;BME280;43608;49.486;9.640;2022-12-08T01:26:51;98227.75;;;1.45;90.37
57779;BME280;43608;49.486;9.640;2022-12-08T01:27:21;98216.31;;;1.41;90.36
57779;BME280;43608;49.486;9.640;2022-12-08T01:27:52;98234.81;;;1.51;90.68
57779;BME280;43608;49.486;9.640;2022-12-08T01:28:22;98235.75;;;1.53;91.15
57779;BME280;43608;49.486;9.640;2022-12-08T01:28:53;98212.91;;;1.44;91.42
57779;BME280;43608;49.486;9.640;2022-12-08T01:29:23;98209.44;;;1.43;91.17
57779;BME280;43608;49.486;9.640;2022-12-08T01:29:55;98214.88;;;1.53;91.17
57779;BME280;43608;49.486;9.640;2022-12-08T01:30:25;98231.69;;;1.64;91.66
57779;BME280;43608;49.486;9.640;2022-12-08T01:30:57;98227.31;;;1.63;91.39
57779;BME280;43608;49.486;9.640;2022-12-08T01:31:27;98233.53;;;1.68;91.39
57779;BME280;43608;49.486;9.640;2022-12-08T01:31:57;98203.66;;;1.58;91.30
57779;BME280;43608;49.486;9.640;2022-12-08T01:32:28;98234.59;;;1.78;91.98
57779;BME280;43608;49.486;9.640;2022-12-08T01:32:58;98227.69;;;1.80;92.21
57779;BME280;43608;49.486;9.640;2022-12-08T01:33:29;98227.78;;;1.85;92.02
57779;BME280;43608;49.486;9.640;2022-12-08T01:33:59;98181.13;;;1.62;91.80
57779;BME280;43608;49.486;9.640;2022-12-08T01:34:30;98214.84;;;1.89;91.51
57779;BME280;43608;49.486;9.640;2022-12-08T01:35:00;98200.84;;;1.87;91.46
57779;BME280;43608;49.486;9.640;2022-12-08T01:35:32;98198.16;;;1.84;91.50
57779;BME280;43608;49.486;9.640;2022-12-08T01:36:03;98227.38;;;2.04;91.44
57779;BME280;43608;49.486;9.640;2022-12-08T01:36:35;98223.06;;;2.08;91.62
57779;BME280;43608;49.486;9.640;2022-12-08T01:37:08;98220.50;;;2.09;91.36
57779;BME280;43608;49.486;9.640;2022-12-08T01:37:38;98210.91;;;2.08;90.97
57779;BME280;43608;49.486;9.640;2022-12-08T01:38:09;98212.66;;;2.09;90.50
57779;BME280;43608;49.486;9.640;2022-12-08T01:38:39;98191.47;;;1.95;90.32
57779;BME280;43608;49.486;9.640;2022-12-08T01:39:14;98218.03;;;2.15;90.18
57779;BME280;43608;49.486;9.640;2022-12-08T01:39:44;98207.34;;;2.05;90.24
57779;BME280;43608;49.486;9.640;2022-12-08T01:40:15;98196.84;;;2.02;89.92
57779;BME280;43608;49.486;9.640;2022-12-08T01:40:45;98218.00;;;2.14;90.09
57779;BME280;43608;49.486;9.640;2022-12-08T01:41:19;98213.59;;;2.11;90.20
57779;BME280;43608;49.486;9.640;2022-12-08T01:41:50;98206.59;;;2.12;89.64
57779;BME280;43608;49.486;9.640;2022-12-08T01:42:22;98227.69;;;2.20;89.89
57779;BME280;43608;49.486;9.640;2022-12-08T01:42:52;98218.09;;;2.19;90.05
57779;BME280;43608;49.486;9.640;2022-12-08T01:43:23;98223.38;;;2.22;89.44
57779;BME280;43608;49.486;9.640;2022-12-08T01:45:04;98198.56;;;2.03;88.52
57779;BME280;43608;49.486;9.640;2022-12-08T01:45:35;98226.78;;;2.16;88.20
57779;BME280;43608;49.486;9.640;2022-12-08T01:46:06;98218.81;;;2.11;88.26
57779;BME280;43608;49.486;9.640;2022-12-08T01:46:38;98207.31;;;2.03;88.12
57779;BME280;43608;49.486;9.640;2022-12-08T01:47:08;98218.75;;;2.08;88.34
57779;BME280;43608;49.486;9.640;2022-12-08T01:47:46;98210.78;;;2.02;87.90
57779;BME280;43608;49.486;9.640;2022-12-08T01:48:23;98207.97;;;1.94;88.16
57779;BME280;43608;49.486;9.640;2022-12-08T01:49:06;98175.34;;;1.77;88.00
57779;BME280;43608;49.486;9.640;2022-12-08T01:49:38;98205.31;;;1.91;88.17
57779;BME280;43608;49.486;9.640;2022-12-08T01:50:10;98205.31;;;1.91;87.85
57779;BME280;43608;49.486;9.640;2022-12-08T01:50:42;98206.16;;;1.90;87.75
57779;BME280;43608;49.486;9.640;2022-12-08T01:51:13;98207.84;;;1.88;87.99
57779;BME280;43608;49.486;9.640;2022-12-08T01:52:36;98212.09;;;1.85;87.86
57779;BME280;43608;49.486;9.640;2022-12-08T01:53:11;98211.19;;;1.81;87.79
57779;BME280;43608;49.486;9.640;2022-12-08T01:53:42;98187.34;;;1.67;88.34
57779;BME280;43608;49.486;9.640;2022-12-08T01:54:13;98208.59;;;1.83;88.00
57779;BME280;43608;49.486;9.640;2022-12-08T01:54:48;98205.94;;;1.81;88.13
57779;BME280;43608;49.486;9.640;2022-12-08T01:55:33;98203.25;;;1.78;88.37
57779;BME280;43608;49.486;9.640;2022-12-08T01:56:18;98204.06;;;1.75;88.43
57779;BME280;43608;49.486;9.640;2022-12-08T01:56:56;98180.13;;;1.57;88.04
57779;BME280;43608;49.486;9.640;2022-12-08T01:57:40;98182.88;;;1.61;88.02
57779;BME280;43608;49.486;9.640;2022-12-08T01:58:15;98206.63;;;1.72;88.31
57779;BME280;43608;49.486;9.640;2022-12-08T01:58:49;98203.13;;;1.72;88.21
57779;BME280;43608;49.486;9.640;2022-12-08T01:59:23;98196.03;;;1.68;88.23
57779;BME280;43608;49.486;9.640;2022-12-08T02:00:03;98203.94;;;1.69;88.50
57779;BME280;43608;49.486;9.640;2022-12-08T02:00:35;98211.72;;;1.68;88.38
57779;BME280;43608;49.486;9.640;2022-12-08T02:01:06;98202.09;;;1.65;88.51
57779;BME280;43608;49.486;9.640;2022-12-08T02:01:36;98195.00;;;1.59;88.35
57779;BME280;43608;49.486;9.640;2022-12-08T02:02:09;98202.09;;;1.65;88.44
57779;BME280;43608;49.486;9.640;2022-12-08T02:02:48;98201.22;;;1.64;88.29
57779;BME280;43608;49.486;9.640;2022-12-08T02:03:28;98202.91;;;1.62;88.18
57779;BME280;43608;49.486;9.640;2022-12-08T02:04:01;98205.50;;;1.62;88.71
57779;BME280;43608;49.486;9.640;2022-12-08T02:04:33;98194.94;;;1.56;88.59
57779;BME280;43608;49.486;9.640;2022-12-08T02:05:05;98188.84;;;1.57;88.44
57779;BME280;43608;49.486;9.640;2022-12-08T02:05:37;98195.88;;;1.60;88.54
57779;BME280;43608;49.486;9.640;2022-12-08T02:06:09;98195.84;;;1.58;88.80
57779;BME280;43608;49.486;9.640;2022-12-08T02:06:42;98189.72;;;1.56;88.44
57779;BME280;43608;49.486;9.640;2022-12-08T02:07:15;98173.75;;;1.44;88.46
57779;BME280;43608;49.486;9.640;2022-12-08T02:07:46;98185.25;;;1.52;88.99
57779;BME280;43608;49.486;9.640;2022-12-08T02:08:18;98203.59;;;1.54;88.80
57779;BME280;43608;49.486;9.640;2022-12-08T02:08:48;98174.53;;;1.41;88.75
57779;BME280;43608;49.486;9.640;2022-12-08T02:09:20;98187.00;;;1.53;88.49
57779;BME280;43608;49.486;9.640;2022-12-08T02:09:52;98193.06;;;1.52;88.67
57779;BME280;43608;49.486;9.640;2022-12-08T02:10:23;98191.34;;;1.51;88.57
57779;BME280;43608;49.486;9.640;2022-12-08T02:10:56;98194.78;;;1.50;88.70
57779;BME280;43608;49.486;9.640;2022-12-08T02:11:26;98156.91;;;1.31;88.91
57779;BME280;43608;49.486;9.640;2022-12-08T02:11:57;98162.97;;;1.30;88.92
57779;BME280;43608;49.486;9.640;2022-12-08T02:12:29;98190.38;;;1.47;89.24
57779;BME280;43608;49.486;9.640;2022-12-08T02:12:59;98191.22;;;1.46;89.07
57779;BME280;43608;49.486;9.640;2022-12-08T02:13:31;98148.03;;;1.24;88.95
57779;BME280;43608;49.486;9.640;2022-12-08T02:14:03;98186.00;;;1.46;89.07
57779;BME280;43608;49.486;9.640;2022-12-08T02:14:35;98173.69;;;1.41;89.28
57779;BME280;43608;49.486;9.640;2022-12-08T02:15:06;98171.78;;;1.35;89.22
57779;BME280;43608;49.486;9.640;2022-12-08T02:16:38;98185.97;;;1.45;89.15
57779;BME280;43608;49.486;9.640;2022-12-08T02:17:26;98177.97;;;1.39;89.24
57779;BME280;43608;49.486;9.640;2022-12-08T02:20:52;98127.69;;;1.09;89.27
57779;BME280;43608;49.486;9.640;2022-12-08T02:22:17;98180.69;;;1.42;89.48
57779;BME280;43608;49.486;9.640;2022-12-08T02:25:12;98179.78;;;1.41;89.13
57779;BME280;43608;49.486;9.640;2022-12-08T02:26:13;98186.72;;;1.41;89.17
57779;BME280;43608;49.486;9.640;2022-12-08T02:29:59;98181.47;;;1.39;89.19
57779;BME280;43608;49.486;9.640;2022-12-08T02:30:52;98184.03;;;1.38;89.57
57779;BME280;43608;49.486;9.640;2022-12-08T02:34:03;98168.28;;;1.33;89.40
57779;BME280;43608;49.486;9.640;2022-12-08T02:34:46;98175.28;;;1.36;89.80
57779;BME280;43608;49.486;9.640;2022-12-08T02:37:34;98177.06;;;1.37;89.56
57779;BME280;43608;49.486;9.640;2022-12-08T02:39:24;98115.19;;;0.97;89.67
57779;BME280;43608;49.486;9.640;2022-12-08T02:40:14;98169.94;;;1.31;89.64
57779;BME280;43608;49.486;9.640;2022-12-08T02:40:58;98178.75;;;1.35;89.68
57779;BME280;43608;49.486;9.640;2022-12-08T02:41:31;98177.91;;;1.36;89.69
57779;BME280;43608;49.486;9.640;2022-12-08T02:42:32;98167.28;;;1.28;89.42
57779;BME280;43608;49.486;9.640;2022-12-08T02:43:11;98159.44;;;1.28;89.59
57779;BME280;43608;49.486;9.640;2022-12-08T02:43:58;98169.09;;;1.32;89.68
57779;BME280;43608;49.486;9.640;2022-12-08T02:45:51;98166.47;;;1.30;89.74
57779;BME280;43608;49.486;9.640;2022-12-08T02:46:27;98169.09;;;1.30;90.14
57779;BME280;43608;49.486;9.640;2022-12-08T02:47:39;98154.06;;;1.22;89.89
57779;BME280;43608;49.486;9.640;2022-12-08T02:48:10;98166.50;;;1.32;89.83
57779;BME280;43608;49.486;9.640;2022-12-08T02:48:41;98154.13;;;1.25;89.69
57779;BME280;43608;49.486;9.640;2022-12-08T02:49:11;98164.66;;;1.28;89.98
57779;BME280;43608;49.486;9.640;2022-12-08T02:49:44;98156.75;;;1.25;90.14
57779;BME280;43608;49.486;9.640;2022-12-08T02:50:14;98159.31;;;1.23;90.10
57779;BME280;43608;49.486;9.640;2022-12-08T02:50:45;98167.28;;;1.28;90.19
57779;BME280;43608;49.486;9.640;2022-12-08T02:51:15;98169.94;;;1.31;90.08
57779;BME280;43608;49.486;9.640;2022-12-08T02:51:45;98165.63;;;1.31;90.41
57779;BME280;43608;49.486;9.640;2022-12-08T02:52:47;98162.84;;;1.24;90.07
57779;BME280;43608;49.486;9.640;2022-12-08T02:53:17;98162.09;;;1.29;90.03
57779;BME280;43608;49.486;9.640;2022-12-08T02:53:48;98158.47;;;1.24;90.18
57779;BME280;43608;49.486;9.640;2022-12-08T02:54:18;98165.53;;;1.28;90.16
57779;BME280;43608;49.486;9.640;2022-12-08T02:54:54;98166.44;;;1.29;90.25
57779;BME280;43608;49.486;9.640;2022-12-08T02:55:27;98162.91;;;1.27;90.53
57779;BME280;43608;49.486;9.640;2022-12-08T03:00:09;98174.31;;;1.30;90.26
57779;BME280;43608;49.486;9.640;2022-12-08T03:00:47;98175.16;;;1.31;90.02
57779;BME280;43608;49.486;9.640;2022-12-08T03:01:44;98174.31;;;1.30;90.24
57779;BME280;43608;49.486;9.640;2022-12-08T03:03:36;98165.53;;;1.28;90.03
57779;BME280;43608;49.486;9.640;2022-12-08T03:04:32;98173.38;;;1.28;90.40
57779;BME280;43608;49.486;9.640;2022-12-08T03:05:27;98165.53;;;1.28;90.37
57779;BME280;43608;49.486;9.640;2022-12-08T03:06:49;98176.91;;;1.30;90.46
57779;BME280;43608;49.486;9.640;2022-12-08T03:07:27;98161.06;;;1.23;90.12
57779;BME280;43608;49.486;9.640;2022-12-08T03:09:11;98170.75;;;1.28;90.10
57779;BME280;43608;49.486;9.640;2022-12-08T03:10:05;98170.75;;;1.28;90.14
57779;BME280;43608;49.486;9.640;2022-12-08T03:11:23;98165.47;;;1.25;90.46
57779;BME280;43608;49.486;9.640;2022-12-08T03:13:16;98162.03;;;1.26;90.27
57779;BME280;43608;49.486;9.640;2022-12-08T03:13:51;98161.09;;;1.24;90.37
57779;BME280;43608;49.486;9.640;2022-12-08T03:14:23;98156.66;;;1.20;90.64
57779;BME280;43608;49.486;9.640;2022-12-08T03:14:58;98158.47;;;1.24;90.65
57779;BME280;43608;49.486;9.640;2022-12-08T03:15:29;98168.06;;;1.24;90.59
57779;BME280;43608;49.486;9.640;2022-12-08T03:16:01;98158.47;;;1.24;90.57
57779;BME280;43608;49.486;9.640;2022-12-08T03:16:36;98165.47;;;1.25;90.76
57779;BME280;43608;49.486;9.640;2022-12-08T03:17:07;98127.59;;;1.06;90.62
57779;BME280;43608;49.486;9.640;2022-12-08T03:17:43;98142.59;;;1.15;90.72
57779;BME280;43608;49.486;9.640;2022-12-08T03:18:15;98154.06;;;1.22;90.94
57779;BME280;43608;49.486;9.640;2022-12-08T03:19:16;98164.63;;;1.26;90.69
57779;BME280;43608;49.486;9.640;2022-12-08T03:19:48;98163.72;;;1.26;91.09
57779;BME280;43608;49.486;9.640;2022-12-08T03:20:21;98149.59;;;1.16;90.89
57779;BME280;43608;49.486;9.640;2022-12-08T03:20:52;98149.78;;;1.24;90.43
57779;BME280;43608;49.486;9.640;2022-12-08T03:21:22;98152.38;;;1.24;90.75
57779;BME280;43608;49.486;9.640;2022-12-08T03:21:56;98161.13;;;1.26;90.54
57779;BME280;43608;49.486;9.640;2022-12-08T03:22:33;98148.78;;;1.19;90.74
57779;BME280;43608;49.486;9.640;2022-12-08T03:23:07;98154.94;;;1.22;90.54
57779;BME280;43608;49.486;9.640;2022-12-08T03:23:39;98148.78;;;1.19;91.00
57779;BME280;43608;49.486;9.640;2022-12-08T03:24:14;98149.66;;;1.19;90.56
57779;BME280;43608;49.486;9.640;2022-12-08T03:24:45;98142.59;;;1.15;90.53
57779;BME280;43608;49.486;9.640;2022-12-08T03:25:18;98131.16;;;1.10;90.52
57779;BME280;43608;49.486;9.640;2022-12-08T03:26:03;98150.63;;;1.23;90.49
57779;BME280;43608;49.486;9.640;2022-12-08T03:26:40;98144.34;;;1.14;90.65
57779;BME280;43608;49.486;9.640;2022-12-08T03:27:19;98131.13;;;1.08;90.58
57779;BME280;43608;49.486;9.640;2022-12-08T03:27:50;98143.53;;;1.17;90.60
57779;BME280;43608;49.486;9.640;2022-12-08T03:28:21;98153.13;;;1.20;90.69
57779;BME280;43608;49.486;9.640;2022-12-08T03:28:51;98132.00;;;1.09;90.45